createdAt,value
2019-04-01T00:01:21.337Z,43.13
2019-04-01T00:03:53.858Z,46.93
2019-04-01T00:06:26.490Z,41.75
2019-04-01T00:11:30.661Z,44.18
2019-04-01T00:14:04.694Z,40.95
2019-04-01T00:16:38.285Z,43.75
2019-04-01T00:19:11.893Z,47.93
2019-04-01T00:21:44.730Z,50.60
2019-04-01T00:24:17.312Z,47.73
2019-04-01T00:26:49.425Z,45.55
2019-04-01T00:29:21.761Z,50.30
2019-04-01T00:31:54.383Z,45.98
2019-04-01T00:34:26.749Z,49.20
2019-04-01T00:36:59.313Z,49.05
2019-04-01T00:39:31.664Z,49.08
2019-04-01T00:42:08.898Z,43.60
2019-04-01T00:44:41.302Z,45.45
2019-04-01T00:47:13.705Z,43.00
2019-04-01T00:49:46.306Z,42.08
2019-04-01T00:52:19.862Z,46.92
2019-04-01T00:54:52.405Z,43.83
2019-04-01T00:57:24.802Z,47.70
2019-04-01T00:59:57.366Z,53.13
2019-04-01T01:05:01.479Z,44.18
2019-04-01T01:07:34.290Z,47.65
2019-04-01T01:10:10.398Z,42.53
2019-04-01T01:12:42.801Z,43.60
2019-04-01T01:15:16.576Z,46.28
2019-04-01T01:17:49.045Z,51.20
2019-04-01T01:20:21.406Z,51.05
2019-04-01T01:22:53.842Z,43.05
2019-04-01T01:25:26.320Z,52.35
2019-04-01T01:28:01.403Z,48.85
2019-04-01T01:30:34.689Z,51.15
2019-04-01T01:33:07.298Z,44.70
2019-04-01T01:35:39.779Z,49.53
2019-04-01T01:38:12.475Z,50.33
2019-04-01T01:43:16.698Z,49.00
2019-04-01T01:45:49.315Z,50.25
2019-04-01T01:48:21.745Z,47.15
2019-04-01T01:50:54.303Z,52.38
2019-04-01T01:53:26.773Z,50.67
2019-04-01T01:55:59.297Z,46.40
2019-04-01T01:58:31.629Z,52.60
2019-04-01T02:01:06.877Z,51.35
2019-04-01T02:03:39.364Z,50.90
2019-04-01T02:06:14.542Z,44.53
2019-04-01T02:08:47.297Z,51.00
2019-04-01T02:11:19.736Z,52.73
2019-04-01T02:13:52.290Z,48.02
2019-04-01T02:16:24.642Z,48.45
2019-04-01T02:18:57.179Z,53.00
2019-04-01T02:21:29.611Z,48.98
2019-04-01T02:24:02.308Z,49.80
2019-04-01T02:26:34.731Z,53.02
2019-04-01T02:29:09.749Z,53.10
2019-04-01T02:31:42.309Z,54.38
2019-04-01T02:34:14.600Z,53.35
2019-04-01T02:36:47.339Z,55.52
2019-04-01T02:39:19.725Z,57.20
2019-04-01T02:41:52.292Z,54.35
2019-04-01T02:44:24.645Z,56.13
2019-04-01T02:46:58.287Z,56.28
2019-04-01T02:49:30.645Z,57.43
2019-04-01T02:52:03.033Z,49.18
2019-04-01T02:54:35.571Z,56.68
2019-04-01T02:57:07.854Z,50.88
2019-04-01T02:59:40.361Z,51.85
2019-04-01T03:02:13.101Z,54.25
2019-04-01T03:04:45.514Z,52.45
2019-04-01T03:07:18.073Z,53.05
2019-04-01T03:09:50.517Z,52.35
2019-04-01T03:12:23.034Z,50.70
2019-04-01T03:14:55.458Z,58.70
2019-04-01T03:19:59.512Z,57.25
2019-04-01T03:25:03.635Z,53.52
2019-04-01T03:27:36.306Z,50.40
2019-04-01T03:30:09.291Z,57.25
2019-04-01T03:32:45.170Z,54.75
2019-04-01T03:35:16.550Z,58.38
2019-04-01T03:37:48.970Z,57.55
2019-04-01T03:40:21.368Z,57.05
2019-04-01T03:42:53.744Z,58.65
2019-04-01T03:45:26.285Z,56.58
2019-04-01T03:47:58.624Z,59.13
2019-04-01T03:50:31.297Z,68.17
2019-04-01T03:53:04.299Z,59.75
2019-04-01T03:55:37.006Z,59.30
2019-04-01T03:58:09.300Z,54.00
2019-04-01T04:00:41.705Z,62.45
2019-04-01T04:03:14.287Z,60.17
2019-04-01T04:05:46.665Z,58.50
2019-04-01T04:08:19.286Z,63.90
2019-04-01T04:10:51.674Z,59.27
2019-04-01T04:13:24.046Z,57.15
2019-04-01T04:15:56.323Z,57.30
2019-04-01T04:18:28.264Z,54.03
2019-04-01T04:21:00.527Z,60.25
2019-04-01T04:23:33.286Z,60.48
2019-04-01T04:26:05.819Z,56.50
2019-04-01T04:28:38.762Z,56.53
2019-04-01T04:31:12.337Z,64.82
2019-04-01T04:33:44.834Z,61.60
2019-04-01T04:36:17.434Z,60.58
2019-04-01T04:38:49.984Z,59.20
2019-04-01T04:43:32.369Z,63.20
2019-04-01T04:46:05.035Z,61.08
2019-04-01T04:48:37.438Z,66.42
2019-04-01T04:51:09.819Z,60.75
2019-04-01T04:56:25.607Z,59.93
2019-04-01T04:58:59.334Z,64.15
2019-04-01T05:01:31.706Z,58.83
2019-04-01T05:04:04.277Z,58.17
2019-04-01T05:06:36.550Z,64.25
2019-04-01T05:09:09.287Z,66.25
2019-04-01T05:11:41.665Z,59.70
2019-04-01T05:14:14.278Z,65.40
2019-04-01T05:16:46.998Z,65.87
2019-04-01T05:19:19.397Z,70.17
2019-04-01T05:21:53.576Z,62.58
2019-04-01T05:24:28.308Z,67.58
2019-04-01T05:27:02.807Z,63.83
2019-04-01T05:29:36.879Z,61.92
2019-04-01T05:32:13.294Z,73.85
2019-04-01T05:34:47.357Z,59.27
2019-04-01T05:39:52.435Z,67.97
2019-04-01T05:42:26.659Z,68.00
2019-04-01T05:45:00.701Z,66.02
2019-04-01T05:47:34.790Z,62.95
2019-04-01T05:50:09.259Z,66.75
2019-04-01T05:52:47.053Z,59.23
2019-04-01T05:55:19.651Z,63.25
2019-04-01T05:57:52.273Z,68.92
2019-04-01T06:00:26.604Z,67.20
2019-04-01T06:02:59.483Z,69.15
2019-04-01T06:05:32.305Z,62.00
2019-04-01T06:10:37.738Z,66.92
2019-04-01T06:13:11.067Z,73.47
2019-04-01T06:15:43.804Z,65.25
2019-04-01T06:18:16.385Z,57.62
2019-04-01T06:23:21.291Z,67.30
2019-04-01T06:25:54.309Z,64.80
2019-04-01T06:28:27.303Z,68.67
2019-04-01T06:33:32.777Z,61.23
2019-04-01T06:36:05.291Z,60.65
2019-04-01T06:38:37.702Z,64.17
2019-04-01T06:41:10.285Z,67.27
2019-04-01T06:43:42.645Z,61.77
2019-04-01T06:46:15.282Z,63.28
2019-04-01T06:48:47.965Z,55.33
2019-04-01T06:51:20.718Z,57.17
2019-04-01T06:53:55.890Z,64.75
2019-04-01T06:56:38.646Z,63.58
2019-04-01T06:59:12.018Z,59.20
2019-04-01T07:01:44.802Z,54.25
2019-04-01T07:04:17.383Z,51.15
2019-04-01T07:06:49.827Z,58.70
2019-04-01T07:09:22.646Z,62.58
2019-04-01T07:11:56.661Z,55.95
2019-04-01T07:14:29.288Z,58.23
2019-04-01T07:17:01.901Z,56.58
2019-04-01T07:19:37.523Z,55.83
2019-04-01T07:22:10.129Z,54.90
2019-04-01T07:24:42.765Z,54.30
2019-04-01T07:27:15.282Z,58.95
2019-04-01T07:29:47.902Z,53.52
2019-04-01T07:32:20.953Z,51.98
2019-04-01T07:34:53.301Z,52.43
2019-04-01T07:37:25.860Z,51.40
2019-04-01T07:39:58.370Z,54.08
2019-04-01T07:42:31.316Z,54.48
2019-04-01T07:45:04.494Z,57.48
2019-04-01T07:47:37.547Z,55.78
2019-04-01T07:50:12.422Z,51.80
2019-04-01T07:52:45.709Z,50.63
2019-04-01T07:55:18.384Z,53.58
2019-04-01T07:57:51.009Z,50.80
2019-04-01T08:00:27.050Z,49.67
2019-04-01T08:02:59.727Z,51.10
2019-04-01T08:05:32.473Z,54.75
2019-04-01T08:08:05.339Z,48.13
2019-04-01T08:10:38.374Z,45.10
2019-04-01T08:13:14.729Z,47.85
2019-04-01T08:15:47.429Z,51.90
2019-04-01T08:20:51.629Z,49.90
2019-04-01T08:23:24.294Z,50.63
2019-04-01T08:25:56.842Z,46.08
2019-04-01T08:28:29.753Z,48.73
2019-04-01T08:31:04.291Z,46.02
2019-04-01T08:33:36.829Z,45.50
2019-04-01T08:36:09.406Z,42.80
2019-04-01T08:38:42.300Z,45.23
2019-04-01T08:41:17.293Z,41.85
2019-04-01T08:46:23.791Z,40.08
2019-04-01T08:48:56.718Z,40.25
2019-04-01T08:51:29.321Z,42.98
2019-04-01T08:54:02.997Z,47.80
2019-04-01T08:56:43.805Z,41.20
2019-04-01T08:59:16.468Z,41.28
2019-04-01T09:01:49.467Z,43.38
2019-04-01T09:06:53.890Z,39.45
2019-04-01T09:09:27.971Z,42.50
2019-04-01T09:12:01.429Z,38.88
2019-04-01T09:17:06.632Z,37.80
2019-04-01T09:19:46.689Z,41.05
2019-04-01T09:22:19.326Z,35.78
2019-04-01T09:24:51.866Z,35.60
2019-04-01T09:27:24.426Z,37.75
2019-04-01T09:29:57.325Z,37.90
2019-04-01T09:32:29.912Z,35.78
2019-04-01T09:35:04.562Z,39.55
2019-04-01T09:37:37.086Z,33.15
2019-04-01T09:40:10.680Z,34.20
2019-04-01T09:42:43.294Z,39.75
2019-04-01T09:45:16.347Z,37.30
2019-04-01T09:50:21.304Z,34.18
2019-04-01T09:52:56.373Z,35.60
2019-04-01T09:55:31.394Z,40.08
2019-04-01T09:58:03.901Z,53.87
2019-04-01T10:00:36.823Z,38.15
2019-04-01T10:05:43.344Z,35.13
2019-04-01T10:08:15.794Z,35.90
2019-04-01T10:10:48.648Z,39.55
2019-04-01T10:13:21.358Z,34.03
2019-04-01T10:15:56.829Z,32.73
2019-04-01T10:18:30.305Z,31.27
2019-04-01T10:21:02.947Z,35.70
2019-04-01T10:23:35.388Z,33.33
2019-04-01T10:26:08.061Z,33.30
2019-04-01T10:28:44.000Z,35.25
2019-04-01T10:31:16.642Z,32.80
2019-04-01T10:33:49.354Z,32.88
2019-04-01T10:38:53.821Z,35.40
2019-04-01T10:41:26.464Z,30.70
2019-04-01T10:43:59.047Z,27.58
2019-04-01T10:46:34.328Z,33.38
2019-04-01T10:49:06.799Z,28.80
2019-04-01T10:51:39.344Z,28.45
2019-04-01T10:54:12.066Z,28.85
2019-04-01T10:56:44.582Z,30.17
2019-04-01T10:59:17.178Z,35.08
2019-04-01T11:01:50.044Z,27.37
2019-04-01T11:04:22.582Z,30.32
2019-04-01T11:06:55.312Z,34.13
2019-04-01T11:09:38.273Z,28.75
2019-04-01T11:12:02.349Z,24.98
2019-04-01T11:17:06.836Z,24.25
2019-04-01T11:19:39.875Z,23.22
2019-04-01T11:22:12.569Z,28.70
2019-04-01T11:24:45.020Z,23.65
2019-04-01T11:27:19.426Z,25.97
2019-04-01T11:32:23.435Z,26.97
2019-04-01T11:37:28.664Z,26.65
2019-04-01T11:40:03.382Z,27.77
2019-04-01T11:42:35.568Z,23.85
2019-04-01T11:45:11.780Z,28.70
2019-04-01T11:47:44.442Z,22.42
2019-04-01T11:52:48.763Z,22.52
2019-04-01T11:55:21.505Z,18.73
2019-04-01T11:57:54.021Z,22.62
2019-04-01T12:00:28.069Z,22.55
2019-04-01T12:03:00.708Z,20.43
2019-04-01T12:05:33.309Z,19.75
2019-04-01T12:08:05.783Z,22.58
2019-04-01T12:10:39.298Z,18.73
2019-04-01T12:13:11.812Z,20.60
2019-04-01T12:15:44.501Z,19.45
2019-04-01T12:18:17.282Z,21.77
2019-04-01T12:20:50.909Z,17.98
2019-04-01T12:23:23.326Z,21.00
2019-04-01T12:25:55.775Z,19.48
2019-04-01T12:28:36.417Z,21.57
2019-04-01T12:31:07.577Z,18.57
2019-04-01T12:33:42.311Z,14.98
2019-04-01T12:36:14.914Z,17.90
2019-04-01T12:38:49.281Z,18.42
2019-04-01T12:41:21.899Z,17.77
2019-04-01T12:43:54.568Z,16.23
2019-04-01T12:46:27.416Z,19.77
2019-04-01T12:51:31.608Z,17.57
2019-04-01T12:54:08.311Z,19.75
2019-04-01T12:56:42.441Z,17.65
2019-04-01T12:59:16.703Z,14.25
2019-04-01T13:01:49.619Z,15.68
2019-04-01T13:04:24.500Z,18.17
2019-04-01T13:06:58.325Z,13.80
2019-04-01T13:09:32.594Z,15.13
2019-04-01T13:12:14.133Z,15.98
2019-04-01T13:14:55.426Z,13.95
2019-04-01T14:01:44.587Z,16.80
2019-04-01T15:40:00.378Z,18.62
2019-04-01T15:45:07.690Z,16.30
2019-04-01T15:47:40.333Z,16.97
2019-04-01T15:52:46.676Z,16.10
2019-04-01T15:55:19.467Z,15.45
2019-04-01T15:57:51.987Z,14.43
2019-04-01T16:00:24.774Z,16.67
2019-04-01T16:02:57.748Z,18.48
2019-04-01T16:05:30.627Z,13.98
2019-04-01T16:08:03.309Z,15.03
2019-04-01T16:10:36.057Z,17.37
2019-04-01T16:13:08.842Z,18.52
2019-04-01T16:15:41.419Z,13.58
2019-04-01T16:20:47.494Z,15.93
2019-04-01T16:23:20.275Z,15.38
2019-04-01T16:25:52.689Z,16.05
2019-04-01T16:28:25.301Z,13.85
2019-04-01T16:30:58.339Z,13.32
2019-04-01T16:36:02.821Z,15.83
2019-04-01T16:38:35.407Z,17.37
2019-04-01T16:46:13.405Z,16.10
2019-04-01T16:51:19.293Z,20.82
2019-04-01T16:53:51.815Z,15.17
2019-04-01T16:56:25.912Z,18.30
2019-04-01T16:58:59.941Z,16.00
2019-04-01T19:18:30.648Z,31.00
2019-04-01T19:21:09.811Z,31.00
2019-04-01T19:23:47.825Z,30.30
2019-04-01T19:26:26.675Z,25.48
2019-04-01T19:29:02.313Z,38.95
2019-04-01T19:34:14.701Z,33.25
2019-04-01T19:36:46.771Z,29.07
2019-04-01T19:39:23.847Z,31.40
2019-04-01T19:41:57.730Z,44.45
2019-04-01T19:48:07.517Z,35.90
2019-04-01T19:50:41.292Z,33.05
2019-04-01T19:53:13.864Z,28.57
2019-04-01T19:55:46.424Z,34.15
2019-04-01T19:58:20.343Z,30.62
2019-04-01T20:03:25.613Z,32.55
2019-04-01T20:05:58.757Z,31.85
2019-04-01T20:08:31.326Z,33.80
2019-04-01T20:11:04.316Z,36.77
2019-04-01T20:13:36.842Z,33.42
2019-04-01T20:16:10.260Z,34.67
2019-04-01T20:18:45.254Z,33.92
2019-04-01T20:21:18.013Z,34.60
2019-04-01T20:23:51.044Z,33.40
2019-04-01T20:26:23.535Z,34.48
2019-04-01T20:28:56.310Z,37.90
2019-04-01T20:31:28.799Z,42.40
2019-04-01T20:34:04.167Z,30.85
2019-04-01T20:36:35.573Z,39.18
2019-04-01T20:39:11.071Z,33.85
2019-04-01T20:41:43.467Z,36.80
2019-04-01T20:49:19.590Z,30.45
2019-04-01T20:51:54.035Z,33.15
2019-04-01T20:54:26.761Z,31.73
2019-04-01T20:56:59.398Z,32.95
2019-04-01T21:02:04.251Z,42.60
2019-04-01T21:04:36.849Z,34.78
2019-04-01T21:07:09.997Z,35.13
2019-04-01T21:09:42.622Z,39.53
2019-04-01T21:12:16.298Z,36.95
2019-04-01T21:14:48.864Z,33.67
2019-04-01T21:17:21.327Z,37.98
2019-04-01T21:19:53.738Z,39.73
2019-04-01T21:22:26.162Z,40.38
2019-04-01T21:24:58.701Z,37.88
2019-04-01T21:27:31.312Z,40.88
2019-04-01T21:30:03.983Z,35.20
2019-04-01T21:32:36.749Z,41.48
2019-04-01T21:35:09.686Z,36.98
2019-04-01T21:37:42.312Z,36.30
2019-04-01T21:40:15.570Z,41.18
2019-04-01T21:42:47.985Z,40.48
2019-04-01T21:45:20.657Z,36.33
2019-04-01T21:47:53.291Z,38.78
2019-04-01T21:50:25.728Z,38.38
2019-04-01T21:52:59.668Z,41.95
2019-04-01T21:55:32.050Z,43.08
2019-04-01T21:58:04.482Z,35.45
2019-04-01T22:03:10.648Z,38.88
2019-04-01T22:05:43.465Z,38.48
2019-04-01T22:08:16.301Z,42.85
2019-04-01T22:10:50.315Z,37.00
2019-04-01T22:13:27.225Z,38.00
2019-04-01T22:15:59.679Z,38.40
2019-04-01T22:18:33.022Z,40.03
2019-04-01T22:21:05.473Z,38.88
2019-04-01T22:26:09.405Z,40.85
2019-04-01T22:28:44.405Z,36.68
2019-04-01T22:31:16.756Z,40.95
2019-04-01T22:33:49.302Z,41.30
2019-04-01T22:36:30.478Z,38.73
2019-04-01T22:38:55.372Z,50.45
2019-04-01T22:41:29.146Z,44.88
2019-04-01T22:44:02.051Z,41.92
2019-04-01T22:46:36.354Z,38.00
2019-04-01T22:49:08.867Z,44.23
2019-04-01T22:51:41.320Z,44.08
2019-04-01T22:54:13.627Z,44.38
2019-04-01T22:56:46.308Z,38.85
2019-04-01T22:59:19.286Z,43.33
2019-04-01T23:01:52.673Z,40.78
2019-04-01T23:04:25.310Z,39.25
2019-04-01T23:06:57.590Z,42.88
2019-04-01T23:09:30.048Z,42.27
2019-04-01T23:12:02.486Z,42.43
2019-04-01T23:17:06.887Z,41.75
2019-04-01T23:19:39.412Z,42.27
2019-04-01T23:22:11.820Z,40.67
2019-04-01T23:24:44.347Z,41.73
2019-04-01T23:27:16.971Z,40.48
2019-04-01T23:29:51.087Z,41.23
2019-04-01T23:32:24.155Z,43.17
2019-04-01T23:34:56.772Z,42.43
2019-04-01T23:37:29.313Z,40.83
2019-04-01T23:40:02.395Z,42.65
2019-04-01T23:42:37.683Z,43.48
2019-04-01T23:45:11.788Z,43.85
2019-04-01T23:47:45.254Z,41.88
2019-04-01T23:50:18.292Z,47.40
2019-04-01T23:52:50.771Z,47.38
2019-04-01T23:55:23.308Z,44.13
2019-04-01T23:57:55.784Z,41.50
